sensor_id;sensor_type;location;lat;lon;timestamp;P1;durP1;ratioP1;P2;durP2;ratioP2
26014;SDS011;13793;55.388;37.844;2022-09-09T00:01:43;50.50;;;16.73;;
26014;SDS011;13793;55.388;37.844;2022-09-09T00:04:32;57.57;;;16.97;;
26014;SDS011;13793;55.388;37.844;2022-09-09T00:09:45;35.63;;;11.60;;
26014;SDS011;13793;55.388;37.844;2022-09-09T00:15:00;39.83;;;12.97;;
26014;SDS011;13793;55.388;37.844;2022-09-09T00:17:33;26.83;;;10.50;;
26014;SDS011;13793;55.388;37.844;2022-09-09T00:20:16;30.93;;;11.23;;
26014;SDS011;13793;55.388;37.844;2022-09-09T00:25:40;29.63;;;11.80;;
26014;SDS011;13793;55.388;37.844;2022-09-09T00:28:13;31.60;;;12.40;;
26014;SDS011;13793;55.388;37.844;2022-09-09T00:30:44;33.67;;;11.57;;
26014;SDS011;13793;55.388;37.844;2022-09-09T00:33:20;30.13;;;12.47;;
26014;SDS011;13793;55.388;37.844;2022-09-09T00:35:52;25.20;;;10.50;;
26014;SDS011;13793;55.388;37.844;2022-09-09T00:38:28;20.83;;;9.93;;
26014;SDS011;13793;55.388;37.844;2022-09-09T00:41:11;19.07;;;8.93;;
26014;SDS011;13793;55.388;37.844;2022-09-09T00:43:42;18.83;;;7.47;;
26014;SDS011;13793;55.388;37.844;2022-09-09T00:49:36;14.87;;;7.23;;
26014;SDS011;13793;55.388;37.844;2022-09-09T00:54:49;11.87;;;6.33;;
26014;SDS011;13793;55.388;37.844;2022-09-09T00:57:41;12.37;;;6.20;;
26014;SDS011;13793;55.388;37.844;2022-09-09T01:09:04;12.10;;;5.87;;
26014;SDS011;13793;55.388;37.844;2022-09-09T01:14:48;10.97;;;5.70;;
26014;SDS011;13793;55.388;37.844;2022-09-09T01:17:24;13.10;;;5.77;;
26014;SDS011;13793;55.388;37.844;2022-09-09T01:20:08;11.20;;;7.00;;
26014;SDS011;13793;55.388;37.844;2022-09-09T01:22:51;10.33;;;7.00;;
26014;SDS011;13793;55.388;37.844;2022-09-09T01:28:28;10.10;;;6.90;;
26014;SDS011;13793;55.388;37.844;2022-09-09T01:31:01;10.23;;;6.30;;
26014;SDS011;13793;55.388;37.844;2022-09-09T01:33:37;11.90;;;6.30;;
26014;SDS011;13793;55.388;37.844;2022-09-09T01:36:10;13.47;;;7.13;;
26014;SDS011;13793;55.388;37.844;2022-09-09T01:38:43;12.27;;;6.60;;
26014;SDS011;13793;55.388;37.844;2022-09-09T01:41:13;12.17;;;6.80;;
26014;SDS011;13793;55.388;37.844;2022-09-09T01:43:45;11.47;;;6.63;;
26014;SDS011;13793;55.388;37.844;2022-09-09T01:46:17;11.87;;;6.07;;
26014;SDS011;13793;55.388;37.844;2022-09-09T01:48:55;10.47;;;6.53;;
26014;SDS011;13793;55.388;37.844;2022-09-09T01:51:20;9.63;;;6.40;;
26014;SDS011;13793;55.388;37.844;2022-09-09T01:53:52;13.37;;;6.53;;
26014;SDS011;13793;55.388;37.844;2022-09-09T01:56:29;9.93;;;6.20;;
26014;SDS011;13793;55.388;37.844;2022-09-09T01:59:18;10.37;;;5.73;;
26014;SDS011;13793;55.388;37.844;2022-09-09T02:02:07;11.10;;;5.97;;
26014;SDS011;13793;55.388;37.844;2022-09-09T02:04:49;9.00;;;5.37;;
26014;SDS011;13793;55.388;37.844;2022-09-09T02:13:08;9.50;;;5.57;;
26014;SDS011;13793;55.388;37.844;2022-09-09T02:18:33;9.33;;;5.43;;
26014;SDS011;13793;55.388;37.844;2022-09-09T02:21:17;8.57;;;4.67;;
26014;SDS011;13793;55.388;37.844;2022-09-09T02:23:48;12.13;;;4.83;;
26014;SDS011;13793;55.388;37.844;2022-09-09T02:26:20;9.93;;;4.80;;
26014;SDS011;13793;55.388;37.844;2022-09-09T02:28:54;8.73;;;4.70;;
26014;SDS011;13793;55.388;37.844;2022-09-09T02:31:26;8.67;;;5.17;;
26014;SDS011;13793;55.388;37.844;2022-09-09T02:33:58;8.23;;;4.77;;
26014;SDS011;13793;55.388;37.844;2022-09-09T02:36:31;7.50;;;4.40;;
26014;SDS011;13793;55.388;37.844;2022-09-09T02:39:02;8.67;;;4.37;;
26014;SDS011;13793;55.388;37.844;2022-09-09T02:41:36;8.93;;;4.53;;
26014;SDS011;13793;55.388;37.844;2022-09-09T02:44:12;9.90;;;4.90;;
26014;SDS011;13793;55.388;37.844;2022-09-09T02:55:41;10.80;;;5.33;;
26014;SDS011;13793;55.388;37.844;2022-09-09T02:58:21;9.50;;;4.37;;
26014;SDS011;13793;55.388;37.844;2022-09-09T03:00:53;12.70;;;5.40;;
26014;SDS011;13793;55.388;37.844;2022-09-09T03:03:26;11.47;;;4.70;;
26014;SDS011;13793;55.388;37.844;2022-09-09T03:05:57;10.27;;;4.50;;
26014;SDS011;13793;55.388;37.844;2022-09-09T03:08:28;8.70;;;4.47;;
26014;SDS011;13793;55.388;37.844;2022-09-09T03:10:59;9.77;;;4.90;;
26014;SDS011;13793;55.388;37.844;2022-09-09T03:13:34;10.30;;;4.93;;
26014;SDS011;13793;55.388;37.844;2022-09-09T03:16:05;8.77;;;5.10;;
26014;SDS011;13793;55.388;37.844;2022-09-09T03:18:37;10.83;;;4.97;;
26014;SDS011;13793;55.388;37.844;2022-09-09T03:21:08;9.30;;;5.00;;
26014;SDS011;13793;55.388;37.844;2022-09-09T03:23:39;8.93;;;4.70;;
26014;SDS011;13793;55.388;37.844;2022-09-09T03:26:10;8.40;;;4.80;;
26014;SDS011;13793;55.388;37.844;2022-09-09T03:28:44;9.40;;;5.00;;
26014;SDS011;13793;55.388;37.844;2022-09-09T03:31:16;10.30;;;5.00;;
26014;SDS011;13793;55.388;37.844;2022-09-09T03:33:48;11.80;;;5.50;;
26014;SDS011;13793;55.388;37.844;2022-09-09T03:36:18;9.67;;;4.80;;
26014;SDS011;13793;55.388;37.844;2022-09-09T03:38:49;8.53;;;5.40;;
26014;SDS011;13793;55.388;37.844;2022-09-09T03:41:20;11.73;;;5.30;;
26014;SDS011;13793;55.388;37.844;2022-09-09T03:43:52;11.53;;;5.70;;
26014;SDS011;13793;55.388;37.844;2022-09-09T03:46:25;9.07;;;5.83;;
26014;SDS011;13793;55.388;37.844;2022-09-09T03:48:56;10.80;;;5.53;;
26014;SDS011;13793;55.388;37.844;2022-09-09T03:51:26;13.60;;;5.93;;
26014;SDS011;13793;55.388;37.844;2022-09-09T03:53:57;11.20;;;5.50;;
26014;SDS011;13793;55.388;37.844;2022-09-09T03:56:29;10.17;;;5.80;;
26014;SDS011;13793;55.388;37.844;2022-09-09T03:59:00;9.80;;;5.10;;
26014;SDS011;13793;55.388;37.844;2022-09-09T04:01:31;14.03;;;5.63;;
26014;SDS011;13793;55.388;37.844;2022-09-09T04:04:02;11.93;;;5.97;;
26014;SDS011;13793;55.388;37.844;2022-09-09T04:06:33;12.37;;;5.63;;
26014;SDS011;13793;55.388;37.844;2022-09-09T04:09:03;17.70;;;6.30;;
26014;SDS011;13793;55.388;37.844;2022-09-09T04:11:35;13.13;;;6.27;;
26014;SDS011;13793;55.388;37.844;2022-09-09T04:14:05;11.70;;;5.50;;
26014;SDS011;13793;55.388;37.844;2022-09-09T04:16:37;21.60;;;6.37;;
26014;SDS011;13793;55.388;37.844;2022-09-09T04:19:10;9.07;;;4.83;;
26014;SDS011;13793;55.388;37.844;2022-09-09T04:21:42;8.43;;;4.67;;
26014;SDS011;13793;55.388;37.844;2022-09-09T04:24:13;9.50;;;4.20;;
26014;SDS011;13793;55.388;37.844;2022-09-09T04:26:44;5.80;;;3.97;;
26014;SDS011;13793;55.388;37.844;2022-09-09T04:29:15;8.00;;;4.73;;
26014;SDS011;13793;55.388;37.844;2022-09-09T04:31:46;8.97;;;4.70;;
26014;SDS011;13793;55.388;37.844;2022-09-09T04:34:16;5.77;;;4.57;;
26014;SDS011;13793;55.388;37.844;2022-09-09T04:36:47;5.90;;;3.50;;
26014;SDS011;13793;55.388;37.844;2022-09-09T04:39:17;5.23;;;2.87;;
26014;SDS011;13793;55.388;37.844;2022-09-09T04:41:51;6.47;;;2.80;;
26014;SDS011;13793;55.388;37.844;2022-09-09T04:44:22;4.60;;;3.03;;
26014;SDS011;13793;55.388;37.844;2022-09-09T04:46:52;7.73;;;3.03;;
26014;SDS011;13793;55.388;37.844;2022-09-09T04:49:23;6.43;;;3.00;;
26014;SDS011;13793;55.388;37.844;2022-09-09T04:51:56;5.50;;;3.00;;
26014;SDS011;13793;55.388;37.844;2022-09-09T04:54:27;4.47;;;2.50;;
26014;SDS011;13793;55.388;37.844;2022-09-09T04:56:57;5.40;;;2.80;;
26014;SDS011;13793;55.388;37.844;2022-09-09T04:59:28;5.45;;;2.90;;
26014;SDS011;13793;55.388;37.844;2022-09-09T05:02:00;4.47;;;2.33;;
26014;SDS011;13793;55.388;37.844;2022-09-09T05:04:31;4.20;;;2.92;;
26014;SDS011;13793;55.388;37.844;2022-09-09T05:07:02;4.78;;;2.77;;
26014;SDS011;13793;55.388;37.844;2022-09-09T05:09:33;4.67;;;2.50;;
26014;SDS011;13793;55.388;37.844;2022-09-09T05:12:04;3.52;;;2.40;;
26014;SDS011;13793;55.388;37.844;2022-09-09T05:14:36;4.20;;;2.62;;
26014;SDS011;13793;55.388;37.844;2022-09-09T05:17:07;4.12;;;2.27;;
26014;SDS011;13793;55.388;37.844;2022-09-09T05:19:38;4.72;;;2.47;;
26014;SDS011;13793;55.388;37.844;2022-09-09T05:22:08;3.72;;;2.33;;
26014;SDS011;13793;55.388;37.844;2022-09-09T05:24:41;4.37;;;2.27;;
26014;SDS011;13793;55.388;37.844;2022-09-09T05:27:12;5.25;;;2.15;;
26014;SDS011;13793;55.388;37.844;2022-09-09T05:29:43;4.30;;;2.22;;
26014;SDS011;13793;55.388;37.844;2022-09-09T05:32:14;4.87;;;2.30;;
26014;SDS011;13793;55.388;37.844;2022-09-09T05:34:47;5.53;;;2.20;;
26014;SDS011;13793;55.388;37.844;2022-09-09T05:37:18;3.15;;;2.10;;
26014;SDS011;13793;55.388;37.844;2022-09-09T05:39:48;4.53;;;2.20;;
26014;SDS011;13793;55.388;37.844;2022-09-09T05:42:19;6.55;;;2.70;;
26014;SDS011;13793;55.388;37.844;2022-09-09T05:44:50;4.33;;;2.37;;
26014;SDS011;13793;55.388;37.844;2022-09-09T05:47:22;3.83;;;2.00;;
26014;SDS011;13793;55.388;37.844;2022-09-09T05:49:53;3.17;;;1.70;;
26014;SDS011;13793;55.388;37.844;2022-09-09T05:52:24;1.87;;;1.50;;
26014;SDS011;13793;55.388;37.844;2022-09-09T05:54:56;2.92;;;1.40;;
26014;SDS011;13793;55.388;37.844;2022-09-09T05:57:28;2.15;;;1.50;;
26014;SDS011;13793;55.388;37.844;2022-09-09T05:59:59;1.50;;;1.10;;
26014;SDS011;13793;55.388;37.844;2022-09-09T06:02:30;2.87;;;1.20;;
26014;SDS011;13793;55.388;37.844;2022-09-09T06:05:01;2.30;;;1.30;;
26014;SDS011;13793;55.388;37.844;2022-09-09T06:07:31;3.35;;;1.27;;
26014;SDS011;13793;55.388;37.844;2022-09-09T06:10:01;2.65;;;1.47;;
26014;SDS011;13793;55.388;37.844;2022-09-09T06:12:33;3.42;;;1.50;;
26014;SDS011;13793;55.388;37.844;2022-09-09T06:15:04;2.87;;;1.00;;
26014;SDS011;13793;55.388;37.844;2022-09-09T06:17:35;4.03;;;1.30;;
26014;SDS011;13793;55.388;37.844;2022-09-09T06:20:08;1.87;;;1.30;;
26014;SDS011;13793;55.388;37.844;2022-09-09T06:22:39;2.47;;;1.20;;
26014;SDS011;13793;55.388;37.844;2022-09-09T06:25:10;2.35;;;1.22;;
26014;SDS011;13793;55.388;37.844;2022-09-09T06:27:41;1.62;;;1.20;;
26014;SDS011;13793;55.388;37.844;2022-09-09T06:30:12;3.95;;;1.20;;
26014;SDS011;13793;55.388;37.844;2022-09-09T06:32:43;1.52;;;1.30;;
26014;SDS011;13793;55.388;37.844;2022-09-09T06:35:14;1.87;;;1.10;;
26014;SDS011;13793;55.388;37.844;2022-09-09T06:37:45;3.33;;;0.80;;
26014;SDS011;13793;55.388;37.844;2022-09-09T06:40:17;2.52;;;1.20;;
26014;SDS011;13793;55.388;37.844;2022-09-09T06:42:48;1.85;;;1.00;;
26014;SDS011;13793;55.388;37.844;2022-09-09T06:45:23;4.22;;;1.30;;
26014;SDS011;13793;55.388;37.844;2022-09-09T06:47:55;1.82;;;0.95;;
26014;SDS011;13793;55.388;37.844;2022-09-09T06:50:26;0.90;;;0.80;;
26014;SDS011;13793;55.388;37.844;2022-09-09T06:52:57;1.40;;;0.60;;
26014;SDS011;13793;55.388;37.844;2022-09-09T06:55:27;2.05;;;0.40;;
26014;SDS011;13793;55.388;37.844;2022-09-09T06:57:58;3.60;;;0.40;;
26014;SDS011;13793;55.388;37.844;2022-09-09T07:00:28;1.87;;;0.40;;
26014;SDS011;13793;55.388;37.844;2022-09-09T07:03:02;1.50;;;0.78;;
26014;SDS011;13793;55.388;37.844;2022-09-09T07:05:34;0.60;;;0.50;;
26014;SDS011;13793;55.388;37.844;2022-09-09T07:08:05;1.00;;;0.70;;
26014;SDS011;13793;55.388;37.844;2022-09-09T07:10:37;0.85;;;0.50;;
26014;SDS011;13793;55.388;37.844;2022-09-09T07:13:08;0.60;;;0.40;;
26014;SDS011;13793;55.388;37.844;2022-09-09T07:15:39;0.85;;;0.42;;
26014;SDS011;13793;55.388;37.844;2022-09-09T07:18:10;0.90;;;0.40;;
26014;SDS011;13793;55.388;37.844;2022-09-09T07:20:40;1.77;;;0.40;;
26014;SDS011;13793;55.388;37.844;2022-09-09T07:23:11;1.25;;;0.50;;
26014;SDS011;13793;55.388;37.844;2022-09-09T07:25:45;0.95;;;0.60;;
26014;SDS011;13793;55.388;37.844;2022-09-09T07:28:16;1.47;;;0.57;;
26014;SDS011;13793;55.388;37.844;2022-09-09T07:30:54;2.47;;;0.70;;
26014;SDS011;13793;55.388;37.844;2022-09-09T07:33:31;0.95;;;0.60;;
26014;SDS011;13793;55.388;37.844;2022-09-09T07:36:04;1.72;;;0.62;;
26014;SDS011;13793;55.388;37.844;2022-09-09T07:38:43;2.67;;;0.80;;
26014;SDS011;13793;55.388;37.844;2022-09-09T07:41:27;0.93;;;0.57;;
26014;SDS011;13793;55.388;37.844;2022-09-09T07:43:58;1.60;;;0.62;;
26014;SDS011;13793;55.388;37.844;2022-09-09T07:46:31;1.85;;;0.60;;
26014;SDS011;13793;55.388;37.844;2022-09-09T07:49:02;3.50;;;0.70;;
26014;SDS011;13793;55.388;37.844;2022-09-09T07:51:35;0.85;;;0.45;;
26014;SDS011;13793;55.388;37.844;2022-09-09T07:54:11;2.60;;;0.70;;
26014;SDS011;13793;55.388;37.844;2022-09-09T07:56:45;0.70;;;0.60;;
26014;SDS011;13793;55.388;37.844;2022-09-09T07:59:16;1.20;;;0.60;;
26014;SDS011;13793;55.388;37.844;2022-09-09T08:01:49;1.47;;;0.60;;
26014;SDS011;13793;55.388;37.844;2022-09-09T08:04:23;0.70;;;0.60;;
26014;SDS011;13793;55.388;37.844;2022-09-09T08:06:57;0.85;;;0.70;;
26014;SDS011;13793;55.388;37.844;2022-09-09T08:09:30;2.58;;;0.60;;
26014;SDS011;13793;55.388;37.844;2022-09-09T08:12:21;1.37;;;0.75;;
26014;SDS011;13793;55.388;37.844;2022-09-09T08:14:52;1.60;;;0.80;;
26014;SDS011;13793;55.388;37.844;2022-09-09T08:17:23;0.80;;;0.60;;
26014;SDS011;13793;55.388;37.844;2022-09-09T08:19:54;0.70;;;0.62;;
26014;SDS011;13793;55.388;37.844;2022-09-09T08:22:26;4.05;;;0.70;;
26014;SDS011;13793;55.388;37.844;2022-09-09T08:24:58;0.80;;;0.60;;
26014;SDS011;13793;55.388;37.844;2022-09-09T08:27:29;0.78;;;0.65;;
26014;SDS011;13793;55.388;37.844;2022-09-09T08:30:00;2.00;;;0.70;;
26014;SDS011;13793;55.388;37.844;2022-09-09T08:32:32;2.05;;;0.70;;
26014;SDS011;13793;55.388;37.844;2022-09-09T08:35:04;0.55;;;0.50;;
26014;SDS011;13793;55.388;37.844;2022-09-09T08:37:35;0.95;;;0.50;;
26014;SDS011;13793;55.388;37.844;2022-09-09T08:40:22;0.55;;;0.55;;
26014;SDS011;13793;55.388;37.844;2022-09-09T08:42:44;1.15;;;0.70;;
26014;SDS011;13793;55.388;37.844;2022-09-09T08:50:41;0.75;;;0.50;;
26014;SDS011;13793;55.388;37.844;2022-09-09T08:53:21;0.70;;;0.70;;
26014;SDS011;13793;55.388;37.844;2022-09-09T08:55:54;0.75;;;0.60;;
26014;SDS011;13793;55.388;37.844;2022-09-09T08:58:30;2.40;;;0.62;;
26014;SDS011;13793;55.388;37.844;2022-09-09T09:07:05;1.37;;;0.50;;
26014;SDS011;13793;55.388;37.844;2022-09-09T09:12:43;1.95;;;0.70;;
26014;SDS011;13793;55.388;37.844;2022-09-09T09:15:14;1.43;;;0.87;;
26014;SDS011;13793;55.388;37.844;2022-09-09T09:17:45;1.55;;;0.60;;
26014;SDS011;13793;55.388;37.844;2022-09-09T09:20:18;1.87;;;0.72;;
26014;SDS011;13793;55.388;37.844;2022-09-09T09:22:52;2.95;;;0.82;;
26014;SDS011;13793;55.388;37.844;2022-09-09T09:25:27;1.57;;;0.65;;
26014;SDS011;13793;55.388;37.844;2022-09-09T09:28:29;0.62;;;0.50;;
26014;SDS011;13793;55.388;37.844;2022-09-09T09:30:42;1.57;;;0.57;;
26014;SDS011;13793;55.388;37.844;2022-09-09T09:33:20;2.83;;;0.90;;
26014;SDS011;13793;55.388;37.844;2022-09-09T09:35:51;1.95;;;0.90;;
26014;SDS011;13793;55.388;37.844;2022-09-09T09:38:26;2.05;;;0.90;;
26014;SDS011;13793;55.388;37.844;2022-09-09T09:40:58;7.67;;;6.12;;
26014;SDS011;13793;55.388;37.844;2022-09-09T09:43:30;3.20;;;1.75;;
26014;SDS011;13793;55.388;37.844;2022-09-09T09:46:04;4.53;;;1.30;;
26014;SDS011;13793;55.388;37.844;2022-09-09T09:48:36;47.23;;;29.95;;
26014;SDS011;13793;55.388;37.844;2022-09-09T09:51:09;5.87;;;3.87;;
26014;SDS011;13793;55.388;37.844;2022-09-09T09:53:43;5.05;;;3.58;;
26014;SDS011;13793;55.388;37.844;2022-09-09T09:56:15;2.77;;;1.50;;
26014;SDS011;13793;55.388;37.844;2022-09-09T09:58:48;1.90;;;1.10;;
26014;SDS011;13793;55.388;37.844;2022-09-09T10:01:30;0.82;;;0.70;;
26014;SDS011;13793;55.388;37.844;2022-09-09T10:04:16;0.90;;;0.70;;
26014;SDS011;13793;55.388;37.844;2022-09-09T10:06:49;6.05;;;3.05;;
26014;SDS011;13793;55.388;37.844;2022-09-09T10:09:24;1.52;;;1.10;;
26014;SDS011;13793;55.388;37.844;2022-09-09T10:14:42;2.92;;;1.20;;
26014;SDS011;13793;55.388;37.844;2022-09-09T10:17:29;1.92;;;0.95;;
26014;SDS011;13793;55.388;37.844;2022-09-09T10:20:45;1.15;;;0.88;;
26014;SDS011;13793;55.388;37.844;2022-09-09T10:22:51;1.70;;;0.70;;
26014;SDS011;13793;55.388;37.844;2022-09-09T10:28:26;2.08;;;0.80;;
26014;SDS011;13793;55.388;37.844;2022-09-09T10:36:16;2.15;;;1.10;;
26014;SDS011;13793;55.388;37.844;2022-09-09T10:42:03;2.87;;;1.12;;
26014;SDS011;13793;55.388;37.844;2022-09-09T10:47:11;1.82;;;1.15;;
26014;SDS011;13793;55.388;37.844;2022-09-09T10:49:52;2.90;;;0.98;;
26014;SDS011;13793;55.388;37.844;2022-09-09T10:52:32;3.72;;;1.05;;
26014;SDS011;13793;55.388;37.844;2022-09-09T10:55:10;3.35;;;1.00;;
26014;SDS011;13793;55.388;37.844;2022-09-09T10:57:47;3.08;;;0.90;;
26014;SDS011;13793;55.388;37.844;2022-09-09T11:00:21;2.85;;;0.98;;
26014;SDS011;13793;55.388;37.844;2022-09-09T11:02:57;1.47;;;1.07;;
26014;SDS011;13793;55.388;37.844;2022-09-09T11:08:15;1.60;;;1.05;;
26014;SDS011;13793;55.388;37.844;2022-09-09T11:10:52;1.92;;;1.00;;
26014;SDS011;13793;55.388;37.844;2022-09-09T11:13:42;1.77;;;0.85;;
26014;SDS011;13793;55.388;37.844;2022-09-09T11:25:01;1.92;;;1.05;;
26014;SDS011;13793;55.388;37.844;2022-09-09T11:33:53;5.75;;;2.67;;
26014;SDS011;13793;55.388;37.844;2022-09-09T11:44:47;2.67;;;1.10;;
26014;SDS011;13793;55.388;37.844;2022-09-09T11:47:25;3.08;;;1.10;;
26014;SDS011;13793;55.388;37.844;2022-09-09T11:50:10;2.35;;;0.78;;
26014;SDS011;13793;55.388;37.844;2022-09-09T11:53:02;3.20;;;1.00;;
26014;SDS011;13793;55.388;37.844;2022-09-09T11:57:59;3.00;;;0.90;;
26014;SDS011;13793;55.388;37.844;2022-09-09T12:00:43;3.37;;;1.20;;
26014;SDS011;13793;55.388;37.844;2022-09-09T12:09:12;1.52;;;0.88;;
26014;SDS011;13793;55.388;37.844;2022-09-09T12:11:39;2.12;;;1.10;;
26014;SDS011;13793;55.388;37.844;2022-09-09T12:14:23;0.90;;;0.70;;
26014;SDS011;13793;55.388;37.844;2022-09-09T12:17:36;3.50;;;0.80;;
26014;SDS011;13793;55.388;37.844;2022-09-09T12:19:46;2.33;;;0.90;;
26014;SDS011;13793;55.388;37.844;2022-09-09T12:25:23;2.37;;;0.80;;
26014;SDS011;13793;55.388;37.844;2022-09-09T12:28:22;1.77;;;0.70;;
26014;SDS011;13793;55.388;37.844;2022-09-09T12:31:05;1.62;;;0.80;;
26014;SDS011;13793;55.388;37.844;2022-09-09T12:33:37;2.60;;;0.88;;
26014;SDS011;13793;55.388;37.844;2022-09-09T12:36:20;1.42;;;0.80;;
26014;SDS011;13793;55.388;37.844;2022-09-09T12:38:49;5.75;;;1.00;;
26014;SDS011;13793;55.388;37.844;2022-09-09T12:41:21;1.40;;;0.70;;
26014;SDS011;13793;55.388;37.844;2022-09-09T12:44:04;2.75;;;1.00;;
26014;SDS011;13793;55.388;37.844;2022-09-09T12:46:38;1.70;;;0.88;;
26014;SDS011;13793;55.388;37.844;2022-09-09T12:51:58;2.25;;;0.82;;
26014;SDS011;13793;55.388;37.844;2022-09-09T12:54:28;1.52;;;0.80;;
26014;SDS011;13793;55.388;37.844;2022-09-09T12:56:59;2.37;;;0.80;;
26014;SDS011;13793;55.388;37.844;2022-09-09T12:59:39;1.85;;;0.80;;
26014;SDS011;13793;55.388;37.844;2022-09-09T13:04:52;1.67;;;0.75;;
26014;SDS011;13793;55.388;37.844;2022-09-09T13:07:26;3.02;;;1.20;;
26014;SDS011;13793;55.388;37.844;2022-09-09T13:09:57;3.55;;;1.40;;
26014;SDS011;13793;55.388;37.844;2022-09-09T13:12:29;2.80;;;1.30;;
26014;SDS011;13793;55.388;37.844;2022-09-09T13:15:00;4.10;;;1.10;;
26014;SDS011;13793;55.388;37.844;2022-09-09T13:17:31;3.30;;;1.37;;
26014;SDS011;13793;55.388;37.844;2022-09-09T13:20:05;2.35;;;1.20;;
26014;SDS011;13793;55.388;37.844;2022-09-09T13:22:37;2.37;;;1.10;;
26014;SDS011;13793;55.388;37.844;2022-09-09T13:27:50;1.77;;;1.20;;
26014;SDS011;13793;55.388;37.844;2022-09-09T13:30:28;2.65;;;1.20;;
26014;SDS011;13793;55.388;37.844;2022-09-09T13:33:01;3.35;;;1.12;;
26014;SDS011;13793;55.388;37.844;2022-09-09T13:38:33;2.92;;;0.90;;
26014;SDS011;13793;55.388;37.844;2022-09-09T13:41:18;2.35;;;1.05;;
26014;SDS011;13793;55.388;37.844;2022-09-09T13:43:49;2.80;;;0.80;;
26014;SDS011;13793;55.388;37.844;2022-09-09T13:51:41;3.50;;;1.12;;
26014;SDS011;13793;55.388;37.844;2022-09-09T13:54:18;1.30;;;0.70;;
26014;SDS011;13793;55.388;37.844;2022-09-09T13:56:49;2.12;;;1.30;;
26014;SDS011;13793;55.388;37.844;2022-09-09T13:59:19;1.95;;;1.10;;
26014;SDS011;13793;55.388;37.844;2022-09-09T14:01:50;3.00;;;1.17;;
26014;SDS011;13793;55.388;37.844;2022-09-09T14:04:21;2.85;;;1.10;;
26014;SDS011;13793;55.388;37.844;2022-09-09T14:06:51;3.42;;;1.20;;
26014;SDS011;13793;55.388;37.844;2022-09-09T14:09:25;4.17;;;1.40;;
26014;SDS011;13793;55.388;37.844;2022-09-09T14:11:55;2.95;;;1.00;;
26014;SDS011;13793;55.388;37.844;2022-09-09T14:14:26;3.17;;;1.27;;
26014;SDS011;13793;55.388;37.844;2022-09-09T14:16:57;1.62;;;1.20;;
26014;SDS011;13793;55.388;37.844;2022-09-09T14:19:27;2.55;;;1.10;;
26014;SDS011;13793;55.388;37.844;2022-09-09T14:21:59;5.35;;;1.30;;
26014;SDS011;13793;55.388;37.844;2022-09-09T14:24:30;1.95;;;1.60;;
26014;SDS011;13793;55.388;37.844;2022-09-09T14:27:01;5.37;;;2.35;;
26014;SDS011;13793;55.388;37.844;2022-09-09T14:29:33;4.78;;;2.20;;
26014;SDS011;13793;55.388;37.844;2022-09-09T14:32:03;5.20;;;2.50;;
26014;SDS011;13793;55.388;37.844;2022-09-09T14:34:34;4.87;;;2.62;;
26014;SDS011;13793;55.388;37.844;2022-09-09T14:37:05;7.08;;;2.80;;
26014;SDS011;13793;55.388;37.844;2022-09-09T14:39:36;7.28;;;3.85;;
26014;SDS011;13793;55.388;37.844;2022-09-09T14:42:08;6.47;;;4.00;;
26014;SDS011;13793;55.388;37.844;2022-09-09T14:44:39;9.68;;;3.58;;
26014;SDS011;13793;55.388;37.844;2022-09-09T14:47:10;7.37;;;4.00;;
26014;SDS011;13793;55.388;37.844;2022-09-09T14:49:41;7.33;;;4.25;;
26014;SDS011;13793;55.388;37.844;2022-09-09T14:52:11;7.70;;;4.25;;
26014;SDS011;13793;55.388;37.844;2022-09-09T14:54:42;11.57;;;5.58;;
26014;SDS011;13793;55.388;37.844;2022-09-09T14:57:13;10.68;;;4.47;;
26014;SDS011;13793;55.388;37.844;2022-09-09T14:59:44;8.00;;;4.42;;
26014;SDS011;13793;55.388;37.844;2022-09-09T15:02:14;7.65;;;3.67;;
26014;SDS011;13793;55.388;37.844;2022-09-09T15:04:45;5.25;;;2.50;;
26014;SDS011;13793;55.388;37.844;2022-09-09T15:07:17;6.30;;;2.60;;
26014;SDS011;13793;55.388;37.844;2022-09-09T15:09:48;5.12;;;2.15;;
26014;SDS011;13793;55.388;37.844;2022-09-09T15:12:19;8.65;;;2.62;;
26014;SDS011;13793;55.388;37.844;2022-09-09T15:14:49;7.72;;;2.72;;
26014;SDS011;13793;55.388;37.844;2022-09-09T15:17:21;5.50;;;2.70;;
26014;SDS011;13793;55.388;37.844;2022-09-09T15:19:54;5.75;;;2.40;;
26014;SDS011;13793;55.388;37.844;2022-09-09T15:22:25;5.33;;;2.60;;
26014;SDS011;13793;55.388;37.844;2022-09-09T15:24:55;4.03;;;2.70;;
26014;SDS011;13793;55.388;37.844;2022-09-09T15:27:26;4.50;;;2.45;;
26014;SDS011;13793;55.388;37.844;2022-09-09T15:29:57;6.37;;;2.20;;
26014;SDS011;13793;55.388;37.844;2022-09-09T15:32:29;4.70;;;2.42;;
26014;SDS011;13793;55.388;37.844;2022-09-09T15:35:01;4.53;;;2.42;;
26014;SDS011;13793;55.388;37.844;2022-09-09T15:37:32;4.75;;;2.62;;
26014;SDS011;13793;55.388;37.844;2022-09-09T15:40:02;4.17;;;2.62;;
26014;SDS011;13793;55.388;37.844;2022-09-09T15:42:35;6.20;;;3.00;;
26014;SDS011;13793;55.388;37.844;2022-09-09T15:45:06;7.17;;;3.72;;
26014;SDS011;13793;55.388;37.844;2022-09-09T15:47:37;8.55;;;4.12;;
26014;SDS011;13793;55.388;37.844;2022-09-09T15:50:08;7.95;;;4.25;;
26014;SDS011;13793;55.388;37.844;2022-09-09T15:52:38;7.15;;;4.30;;
26014;SDS011;13793;55.388;37.844;2022-09-09T15:55:09;8.03;;;4.00;;
26014;SDS011;13793;55.388;37.844;2022-09-09T15:57:39;7.27;;;4.17;;
26014;SDS011;13793;55.388;37.844;2022-09-09T16:00:10;13.33;;;5.70;;
26014;SDS011;13793;55.388;37.844;2022-09-09T16:02:42;7.03;;;4.10;;
26014;SDS011;13793;55.388;37.844;2022-09-09T16:05:12;8.00;;;4.83;;
26014;SDS011;13793;55.388;37.844;2022-09-09T16:07:43;10.60;;;6.47;;
26014;SDS011;13793;55.388;37.844;2022-09-09T16:10:14;10.33;;;6.03;;
26014;SDS011;13793;55.388;37.844;2022-09-09T16:12:45;11.87;;;6.70;;
26014;SDS011;13793;55.388;37.844;2022-09-09T16:15:17;11.83;;;7.60;;
26014;SDS011;13793;55.388;37.844;2022-09-09T16:17:49;15.50;;;9.83;;
26014;SDS011;13793;55.388;37.844;2022-09-09T16:20:21;16.73;;;11.33;;
26014;SDS011;13793;55.388;37.844;2022-09-09T16:22:53;81.13;;;54.33;;
26014;SDS011;13793;55.388;37.844;2022-09-09T16:25:25;67.73;;;44.43;;
26014;SDS011;13793;55.388;37.844;2022-09-09T16:27:56;60.20;;;41.27;;
26014;SDS011;13793;55.388;37.844;2022-09-09T16:30:26;55.60;;;37.53;;
26014;SDS011;13793;55.388;37.844;2022-09-09T16:32:57;48.90;;;35.03;;
26014;SDS011;13793;55.388;37.844;2022-09-09T16:35:28;52.33;;;35.30;;
26014;SDS011;13793;55.388;37.844;2022-09-09T16:37:59;57.17;;;35.63;;
26014;SDS011;13793;55.388;37.844;2022-09-09T16:40:30;45.30;;;30.97;;
26014;SDS011;13793;55.388;37.844;2022-09-09T16:43:05;49.47;;;33.37;;
26014;SDS011;13793;55.388;37.844;2022-09-09T16:45:40;46.93;;;31.30;;
26014;SDS011;13793;55.388;37.844;2022-09-09T16:48:12;43.87;;;28.97;;
26014;SDS011;13793;55.388;37.844;2022-09-09T16:50:42;42.43;;;30.20;;
26014;SDS011;13793;55.388;37.844;2022-09-09T16:53:14;43.43;;;28.13;;
26014;SDS011;13793;55.388;37.844;2022-09-09T16:55:44;39.70;;;27.50;;
26014;SDS011;13793;55.388;37.844;2022-09-09T16:58:15;35.03;;;24.83;;
26014;SDS011;13793;55.388;37.844;2022-09-09T17:00:46;39.63;;;24.53;;
26014;SDS011;13793;55.388;37.844;2022-09-09T17:03:17;36.23;;;23.70;;
26014;SDS011;13793;55.388;37.844;2022-09-09T17:05:49;44.07;;;27.03;;
26014;SDS011;13793;55.388;37.844;2022-09-09T17:08:20;44.03;;;27.10;;
26014;SDS011;13793;55.388;37.844;2022-09-09T17:10:51;38.43;;;26.23;;
26014;SDS011;13793;55.388;37.844;2022-09-09T17:13:21;40.67;;;27.07;;
26014;SDS011;13793;55.388;37.844;2022-09-09T17:15:52;41.53;;;28.10;;
26014;SDS011;13793;55.388;37.844;2022-09-09T17:18:23;45.27;;;29.93;;